Time;durP1;ratioP1;P1;durP2;ratioP2;P2;SDS_P1;SDS_P2;PMS_P1;PMS_P2;Temp;Humidity;BMP_temperature;BMP_pressure;BME280_temperature;BME280_humidity;BME280_pressure;Samples;Min_cycle;Max_cycle;Signal;HPM_P1;HPM_P2
2022/09/19 00:01:06;;;;;;;;;;;;;;;14.04;100.00;99216.53;5002360;28;19953;-84
2022/09/19 00:03:32;;;;;;;;;;;;;;;13.89;100.00;99215.59;5002097;28;19928;-81
2022/09/19 00:05:57;;;;;;;;;;;;;;;13.72;100.00;99224.63;5004655;28;20011;-81
2022/09/19 00:08:22;;;;;;;;;;;;;;;13.64;100.00;99216.69;5002659;28;20012;-83
2022/09/19 00:10:48;;;;;;;;;;;;;;;13.61;100.00;99230.28;5003958;28;19921;-82
2022/09/19 00:13:13;;;;;;;;;;;;;;;13.65;100.00;99226.28;5003207;28;19983;-82
2022/09/19 00:15:45;;;;;;;;;;;;;;;13.71;100.00;99220.31;5004921;28;19948;-82
2022/09/19 00:18:11;;;;;;;;;;;;;;;13.74;100.00;99214.66;5003475;28;19921;-82
2022/09/19 00:20:40;;;;;;;;;;;;;;;13.71;100.00;99220.31;5002296;28;20366;-82
2022/09/19 00:25:56;;;;;;;;;;;;;;;13.66;100.00;99209.41;5004630;28;19926;-82
2022/09/19 00:28:25;;;;;;;;;;;;;;;13.65;100.00;99205.09;5006472;28;19958;-81
2022/09/19 00:30:50;;;;;;;;;;;;;;;13.59;100.00;99216.38;4983522;28;19926;-81
2022/09/19 00:33:16;;;;;;;;;;;;;;;13.62;100.00;99210.72;5005157;28;19964;-82
2022/09/19 00:35:41;;;;;;;;;;;;;;;13.64;100.00;99214.03;5002879;28;19977;-81
2022/09/19 00:38:06;;;;;;;;;;;;;;;13.63;100.00;99207.06;5004941;28;19918;-78
2022/09/19 00:40:32;;;;;;;;;;;;;;;13.64;100.00;99204.25;5016117;28;20004;-82
2022/09/19 00:43:00;;;;;;;;;;;;;;;13.58;100.00;99209.41;5008121;28;19996;-82
2022/09/19 00:45:25;;;;;;;;;;;;;;;13.55;100.00;99209.75;5009442;28;19917;-80
2022/09/19 00:47:51;;;;;;;;;;;;;;;13.50;100.00;99208.44;5003164;28;20019;-84
2022/09/19 00:50:23;;;;;;;;;;;;;;;13.50;100.00;99197.81;5003774;28;19939;-84
2022/09/19 00:53:01;;;;;;;;;;;;;;;13.47;100.00;99187.56;5005029;28;20306;-82
2022/09/19 00:55:27;;;;;;;;;;;;;;;13.46;100.00;99199.16;5001557;28;19922;-82
2022/09/19 00:57:55;;;;;;;;;;;;;;;13.47;100.00;99192.88;4989474;28;19976;-82
2022/09/19 01:00:21;;;;;;;;;;;;;;;13.47;100.00;99202.66;5001199;28;20432;-82
2022/09/19 01:02:48;;;;;;;;;;;;;;;13.49;100.00;99200.63;4983432;28;19925;-80
2022/09/19 01:05:16;;;;;;;;;;;;;;;13.38;100.00;99199.19;4980968;28;20004;-81
2022/09/19 01:07:45;;;;;;;;;;;;;;;13.34;100.00;99197.88;5002319;28;19979;-82
2022/09/19 01:10:22;;;;;;;;;;;;;;;13.28;100.00;99193.25;4983749;28;19957;-81
2022/09/19 01:13:09;;;;;;;;;;;;;;;13.27;100.00;99191.59;4985187;28;19922;-81
2022/09/19 01:15:51;;;;;;;;;;;;;;;13.34;100.00;99183.78;4988576;28;19969;-83
2022/09/19 01:18:21;;;;;;;;;;;;;;;13.35;100.00;99183.63;5003026;28;19933;-84
2022/09/19 01:20:52;;;;;;;;;;;;;;;13.23;100.00;99190.28;5002467;28;19921;-82
2022/09/19 01:23:36;;;;;;;;;;;;;;;13.17;100.00;99190.94;4981522;28;19925;-82
2022/09/19 01:26:15;;;;;;;;;;;;;;;13.18;100.00;99178.53;5001860;28;19921;-83
2022/09/19 01:28:49;;;;;;;;;;;;;;;13.08;100.00;99176.84;5005143;28;19929;-83
2022/09/19 01:31:20;;;;;;;;;;;;;;;12.91;100.00;99172.56;4972323;28;19929;-83
2022/09/19 01:34:07;;;;;;;;;;;;;;;12.90;100.00;99181.50;4986607;28;19922;-84
2022/09/19 01:36:39;;;;;;;;;;;;;;;12.89;100.00;99181.69;5007344;28;19952;-84
2022/09/19 01:39:07;;;;;;;;;;;;;;;12.91;100.00;99177.03;4988427;28;19928;-84
2022/09/19 01:41:46;;;;;;;;;;;;;;;12.87;100.00;99173.06;5023235;28;20278;-83
2022/09/19 01:44:15;;;;;;;;;;;;;;;12.81;100.00;99173.72;4988215;28;19967;-85
2022/09/19 01:46:52;;;;;;;;;;;;;;;12.82;100.00;99170.09;4989424;28;19929;-84
2022/09/19 01:49:20;;;;;;;;;;;;;;;12.83;100.00;99163.81;4991113;28;19929;-86
2022/09/19 01:51:49;;;;;;;;;;;;;;;12.79;100.00;99159.81;5007118;28;19925;-85
2022/09/19 01:54:15;;;;;;;;;;;;;;;12.76;100.00;99168.09;4993281;28;19988;-85
2022/09/19 01:56:57;;;;;;;;;;;;;;;12.70;100.00;99170.44;4990713;28;19940;-83
2022/09/19 01:59:28;;;;;;;;;;;;;;;12.68;100.00;99175.06;4978045;28;19934;-84
2022/09/19 02:02:10;;;;;;;;;;;;;;;12.69;100.00;99160.81;4989262;28;19925;-83
2022/09/19 02:04:41;;;;;;;;;;;;;;;12.69;100.00;99160.81;5004829;28;19960;-83
2022/09/19 02:07:10;;;;;;;;;;;;;;;12.71;100.00;99158.84;4992369;28;20012;-84
2022/09/19 02:09:45;;;;;;;;;;;;;;;12.64;100.00;99152.56;4989794;28;20031;-82
2022/09/19 02:12:16;;;;;;;;;;;;;;;12.61;100.00;99152.88;4986810;28;20247;-84
2022/09/19 02:14:52;;;;;;;;;;;;;;;12.63;100.00;99145.59;4986151;28;19921;-84
2022/09/19 02:17:24;;;;;;;;;;;;;;;12.64;100.00;99149.09;5018492;28;20000;-84
2022/09/19 02:20:00;;;;;;;;;;;;;;;12.66;100.00;99139.16;4974772;28;19925;-85
2022/09/19 02:22:28;;;;;;;;;;;;;;;12.67;100.00;99141.63;4988943;28;20408;-84
2022/09/19 02:24:58;;;;;;;;;;;;;;;12.65;100.00;99133.03;4992945;28;20333;-85
2022/09/19 02:27:30;;;;;;;;;;;;;;;12.60;100.00;99132.72;4987170;28;19922;-84
2022/09/19 02:29:58;;;;;;;;;;;;;;;12.51;100.00;99128.41;4987360;28;20341;-83
2022/09/19 02:32:26;;;;;;;;;;;;;;;12.37;100.00;99138.84;4990245;28;19922;-82
2022/09/19 02:34:52;;;;;;;;;;;;;;;12.27;100.00;99141.59;5008950;28;20309;-83
2022/09/19 02:37:35;;;;;;;;;;;;;;;12.20;100.00;99140.59;4989577;28;19981;-82
2022/09/19 02:40:01;;;;;;;;;;;;;;;12.16;100.00;99140.13;4985876;28;19921;-81
2022/09/19 02:42:49;;;;;;;;;;;;;;;12.04;100.00;99137.94;4987868;28;19922;-82
2022/09/19 02:45:19;;;;;;;;;;;;;;;12.00;100.00;99142.72;4987327;28;19929;-80
2022/09/19 02:48:21;;;;;;;1.83;1.67;;;;;;;12.03;100.00;99128.34;4983815;28;19921;-81
2022/09/19 02:51:04;;;;;;;5.45;1.50;;;;;;;12.05;100.00;99123.72;4988279;28;20109;-82
2022/09/19 02:53:38;;;;;;;1.63;1.35;;;;;;;12.12;100.00;99122.09;4990959;28;20033;-78
2022/09/19 02:56:06;;;;;;;1.40;1.25;;;;;;;12.15;100.00;99130.53;4985864;28;20042;-80
2022/09/19 02:58:49;;;;;;;3.55;1.40;;;;;;;12.16;100.00;99126.06;4992412;28;20042;-83
2022/09/19 03:01:21;;;;;;;2.80;1.35;;;;;;;12.09;100.00;99130.34;4994240;28;20038;-82
2022/09/19 03:06:46;;;;;;;1.23;1.17;;;;;;;12.04;100.00;99133.47;4983740;28;20168;-83
2022/09/19 03:09:17;;;;;;;2.08;1.30;;;;;;;11.99;100.00;99135.78;4986240;28;20470;-83
2022/09/19 03:11:49;;;;;;;1.40;1.27;;;;;;;11.94;100.00;99134.63;4985461;28;20034;-85
2022/09/19 03:14:16;;;;;;;1.45;1.20;;;;;;;11.93;100.00;99131.13;4984625;28;20058;-87
2022/09/19 03:16:47;;;;;;;2.45;1.35;;;;;;;11.98;100.00;99138.59;4994566;28;20029;-86
2022/09/19 03:19:15;;;;;;;1.30;1.20;;;;;;;11.99;100.00;99134.94;5004380;28;20616;-87
2022/09/19 03:21:41;;;;;;;1.48;1.38;;;;;;;11.99;100.00;99132.31;5006586;28;20030;-86
2022/09/19 03:24:08;;;;;;;2.95;1.40;;;;;;;11.99;100.00;99134.94;4986662;28;20022;-86
2022/09/19 03:26:36;;;;;;;1.40;1.30;;;;;;;12.00;100.00;99136.63;4985912;28;20408;-87
2022/09/19 03:29:08;;;;;;;2.17;1.45;;;;;;;12.04;100.00;99140.56;4992011;28;20402;-87
2022/09/19 03:31:44;;;;;;;3.30;1.30;;;;;;;12.16;100.00;99139.28;4986792;28;20909;-87
2022/09/19 03:34:12;;;;;;;1.92;1.17;;;;;;;12.24;100.00;99139.31;4987166;28;20391;-85
2022/09/19 03:36:40;;;;;;;1.70;1.30;;;;;;;12.28;100.00;99130.03;4986256;28;20388;-82
2022/09/19 03:39:06;;;;;;;4.10;1.60;;;;;;;12.23;100.00;99137.66;4980106;28;20429;-85
2022/09/19 03:41:38;;;;;;;1.63;1.13;;;;;;;12.26;100.00;99139.94;4987939;28;20410;-84
2022/09/19 03:44:05;;;;;;;3.83;1.40;;;;;;;12.28;100.00;99145.91;4988008;28;20414;-83
2022/09/19 03:46:32;;;;;;;2.28;1.10;;;;;;;12.09;100.00;99140.91;4984999;28;20420;-84
2022/09/19 03:49:00;;;;;;;2.00;1.43;;;;;;;12.28;100.00;99138.81;4983892;28;20467;-85
2022/09/19 03:51:26;;;;;;;1.73;1.20;;;;;;;12.31;100.00;99135.03;4983440;28;20417;-85
2022/09/19 03:53:52;;;;;;;1.73;1.25;;;;;;;12.16;100.00;99136.63;4991290;28;20421;-86
2022/09/19 03:56:21;;;;;;;2.17;1.52;;;;;;;12.04;100.00;99127.34;4980939;28;20414;-87
2022/09/19 03:58:46;;;;;;;2.60;1.45;;;;;;;12.00;100.00;99128.69;4987274;28;20409;-84
2022/09/19 04:01:15;;;;;;;3.13;1.42;;;;;;;12.11;100.00;99131.00;4985467;28;20417;-85
2022/09/19 04:03:43;;;;;;;1.40;1.20;;;;;;;12.06;100.00;99135.97;4981820;28;20402;-82
2022/09/19 04:06:09;;;;;;;1.98;1.38;;;;;;;12.12;100.00;99130.03;4984776;28;20506;-83
2022/09/19 04:08:36;;;;;;;2.70;1.30;;;;;;;12.12;100.00;99140.59;4983430;28;20405;-83
2022/09/19 04:11:03;;;;;;;2.30;1.30;;;;;;;12.08;100.00;99134.78;4968052;28;20493;-82
2022/09/19 04:13:31;;;;;;;2.63;1.25;;;;;;;11.97;100.00;99132.47;4982610;28;20404;-82
2022/09/19 04:16:02;;;;;;;1.58;1.30;;;;;;;11.96;100.00;99151.16;4997366;28;20421;-80
2022/09/19 04:18:28;;;;;;;1.88;1.50;;;;;;;12.01;100.00;99149.69;5001866;28;20778;-81
2022/09/19 04:20:56;;;;;;;1.58;1.40;;;;;;;12.02;100.00;99151.31;4985305;28;20429;-82
2022/09/19 04:23:55;;;;;;;2.35;1.30;;;;;;;12.07;100.00;99156.13;4962612;28;20396;-81
2022/09/19 04:26:50;;;;;;;3.15;1.45;;;;;;;12.07;100.00;99156.13;4987269;28;20423;-81
2022/09/19 04:29:18;;;;;;;2.03;1.40;;;;;;;12.06;100.00;99162.41;4964630;28;20405;-80
2022/09/19 04:31:43;;;;;;;1.87;1.50;;;;;;;12.10;100.00;99164.56;4986856;28;20392;-81
2022/09/19 04:34:16;;;;;;;1.80;1.70;;;;;;;12.07;100.00;99159.63;4964262;28;20431;-80
2022/09/19 04:36:44;;;;;;;3.58;2.05;;;;;;;12.03;100.00;99160.91;4987322;28;20975;-82
2022/09/19 04:39:10;;;;;;;2.63;2.00;;;;;;;12.05;100.00;99155.47;4974217;28;20940;-82
2022/09/19 04:41:38;;;;;;;1.90;1.70;;;;;;;11.98;100.00;99165.03;4985995;28;20562;-80
2022/09/19 04:44:06;;;;;;;2.40;2.00;;;;;;;11.88;100.00;99171.28;5001647;28;20409;-82
2022/09/19 04:46:57;;;;;;;3.70;1.80;;;;;;;11.81;100.00;99164.97;4991275;28;20407;-81
2022/09/19 04:49:34;;;;;;;3.17;2.30;;;;;;;11.81;100.00;99175.56;4982517;28;20400;-80
2022/09/19 04:52:01;;;;;;;2.50;2.30;;;;;;;11.61;100.00;99179.38;4985627;28;20759;-82
2022/09/19 04:54:26;;;;;;;2.60;2.35;;;;;;;11.59;100.00;99176.09;5004322;28;20520;-81
2022/09/19 04:56:52;;;;;;;2.30;2.10;;;;;;;11.69;100.00;99182.06;4983155;28;20479;-80
2022/09/19 04:59:18;;;;;;;2.27;1.80;;;;;;;11.74;100.00;99177.16;5002428;28;20432;-80
2022/09/19 05:01:44;;;;;;;3.40;2.17;;;;;;;11.73;100.00;99188.72;4982024;28;20426;-81
2022/09/19 05:04:10;;;;;;;2.78;2.05;;;;;;;11.73;100.00;99178.16;4985581;28;20458;-80
2022/09/19 05:06:36;;;;;;;5.20;2.10;;;;;;;11.82;100.00;99182.50;4985351;28;20410;-80
2022/09/19 05:09:03;;;;;;;1.70;1.60;;;;;;;11.89;100.00;99183.53;4988414;28;20403;-79
2022/09/19 05:11:46;;;;;;;3.95;1.80;;;;;;;12.02;100.00;99176.94;4986559;28;20393;-76
2022/09/19 05:14:14;;;;;;;2.00;1.77;;;;;;;12.06;100.00;99194.16;4986340;28;20398;-75
2022/09/19 05:16:47;;;;;;;2.40;1.80;;;;;;;12.07;100.00;99196.63;4981273;28;20471;-76
2022/09/19 05:19:13;;;;;;;2.38;1.83;;;;;;;12.07;100.00;99203.75;4990959;28;20828;-76
2022/09/19 05:21:39;;;;;;;4.10;1.67;;;;;;;11.77;100.00;99211.22;4990838;28;21876;-78
2022/09/19 05:24:05;;;;;;;2.87;1.70;;;;;;;11.76;100.00;99214.84;5009660;28;20486;-78
2022/09/19 05:26:30;;;;;;;2.72;1.67;;;;;;;11.74;100.00;99211.53;4986662;28;20414;-80
2022/09/19 05:29:00;;;;;;;2.05;1.60;;;;;;;11.72;100.00;99213.47;4987163;28;20438;-81
2022/09/19 05:31:31;;;;;;;3.08;1.70;;;;;;;11.82;100.00;99218.69;4982588;28;20416;-80
2022/09/19 05:34:05;;;;;;;3.43;1.70;;;;;;;11.94;100.00;99232.44;4975025;28;20413;-80
2022/09/19 05:36:32;;;;;;;2.03;1.43;;;;;;;12.02;100.00;99222.72;4979061;28;20444;-79
2022/09/19 05:39:11;;;;;;;2.88;1.60;;;;;;;12.01;100.00;99222.91;4986588;28;20465;-78
2022/09/19 05:41:55;;;;;;;3.33;1.90;;;;;;;12.07;100.00;99222.25;5002726;28;20442;-79
2022/09/19 05:44:23;;;;;;;4.85;1.80;;;;;;;12.13;100.00;99227.75;4977691;28;20966;-79
2022/09/19 05:46:58;;;;;;;3.15;1.35;;;;;;;12.14;100.00;99233.81;4988900;28;20867;-79
2022/09/19 05:49:23;;;;;;;2.25;1.33;;;;;;;12.14;100.00;99233.81;4976395;28;20417;-79
2022/09/19 05:51:55;;;;;;;3.53;1.65;;;;;;;12.17;100.00;99241.47;4983593;28;20408;-79
2022/09/19 05:54:22;;;;;;;4.88;1.75;;;;;;;12.28;100.00;99246.44;4987339;28;20422;-79
2022/09/19 05:57:06;;;;;;;2.95;1.70;;;;;;;12.37;100.00;99239.38;4986106;28;20968;-78
2022/09/19 05:59:32;;;;;;;3.85;2.10;;;;;;;12.41;100.00;99246.00;4984618;28;20432;-83
2022/09/19 06:02:01;;;;;;;4.73;2.10;;;;;;;12.42;100.00;99243.19;4641508;28;10000687;-83
2022/09/19 06:04:39;;;;;;;4.38;1.80;;;;;;;12.45;100.00;99253.44;4986081;28;20983;-82
2022/09/19 06:07:05;;;;;;;3.88;2.15;;;;;;;12.55;100.00;99255.94;4985543;28;20520;-82
2022/09/19 06:09:31;;;;;;;4.28;2.03;;;;;;;12.59;100.00;99260.75;4985346;28;20657;-83
2022/09/19 06:11:58;;;;;;;6.35;2.60;;;;;;;12.48;100.00;99263.72;4991769;28;20403;-83
2022/09/19 06:14:27;;;;;;;6.88;2.70;;;;;;;12.39;100.00;99275.25;4989513;28;20880;-83
2022/09/19 06:16:53;;;;;;;7.23;2.77;;;;;;;12.41;100.00;99270.63;4987162;28;20402;-84
2022/09/19 06:19:25;;;;;;;4.72;2.88;;;;;;;12.47;100.00;99272.63;4999995;28;20520;-83
2022/09/19 06:22:06;;;;;;;7.80;3.30;;;;;;;12.51;100.00;99263.38;4985110;28;20940;-83
2022/09/19 06:24:34;;;;;;;9.43;3.53;;;;;;;12.49;100.00;99281.22;4988221;28;20416;-83
2022/09/19 06:27:00;;;;;;;6.73;3.00;;;;;;;12.48;100.00;99279.59;4988658;28;20867;-83
2022/09/19 06:29:26;;;;;;;7.95;3.38;;;;;;;12.40;100.00;99284.03;4974377;28;20876;-83
2022/09/19 06:32:11;;;;;;;8.68;2.90;;;;;;;12.35;100.00;99281.88;5005438;28;20498;-82
2022/09/19 06:34:40;;;;;;;5.88;2.80;;;;;;;12.47;100.00;99283.22;4985158;28;20409;-82
2022/09/19 06:37:06;;;;;;;6.63;2.50;;;;;;;12.55;100.00;99279.75;4991575;28;20411;-82
2022/09/19 06:39:32;;;;;;;4.53;2.53;;;;;;;12.67;100.00;99289.88;4989201;28;20425;-83
2022/09/19 06:42:15;;;;;;;6.38;2.70;;;;;;;12.70;100.00;99297.50;4989889;28;20967;-83
2022/09/19 06:44:58;;;;;;;5.60;2.33;;;;;;;12.65;100.00;99305.09;4987337;28;20406;-82
2022/09/19 06:47:32;;;;;;;8.80;2.88;;;;;;;12.73;100.00;99313.06;4972759;28;20416;-84
2022/09/19 06:50:13;;;;;;;8.93;2.50;;;;;;;12.81;100.00;99300.81;4989472;28;20412;-83
2022/09/19 06:52:51;;;;;;;8.23;2.75;;;;;;;12.82;100.00;99307.78;4969775;28;20450;-83
2022/09/19 06:55:17;;;;;;;4.95;3.03;;;;;;;12.85;100.00;99312.75;4987650;28;20408;-83
2022/09/19 06:57:54;;;;;;;5.97;2.80;;;;;;;12.97;100.00;99314.91;4989629;28;20412;-84
2022/09/19 07:00:22;;;;;;;8.90;2.47;;;;;;;13.00;100.00;99322.53;4988366;28;20405;-83
2022/09/19 07:02:49;;;;;;;3.05;2.25;;;;;;;12.96;100.00;99331.00;4985849;28;20764;-83
2022/09/19 07:05:14;;;;;;;6.13;2.47;;;;;;;12.94;100.00;99328.50;4984719;28;20765;-83
2022/09/19 07:07:55;;;;;;;6.60;2.60;;;;;;;13.05;100.00;99335.28;4985172;28;20421;-83
2022/09/19 07:10:21;;;;;;;6.13;2.20;;;;;;;13.12;100.00;99336.34;4983665;28;20394;-83
2022/09/19 07:13:02;;;;;;;5.03;2.63;;;;;;;13.22;100.00;99337.00;4989084;28;20407;-83
2022/09/19 07:15:30;;;;;;;4.10;2.30;;;;;;;13.36;100.00;99335.53;4982980;28;20444;-83
2022/09/19 07:17:56;;;;;;;3.78;2.20;;;;;;;13.49;100.00;99339.31;4985061;28;20738;-83
2022/09/19 07:20:23;;;;;;;3.70;2.30;;;;;;;13.48;100.00;99342.97;4985383;28;20447;-83
2022/09/19 07:23:18;;;;;;;3.45;2.30;;;;;;;13.49;100.00;99344.59;4985806;28;20408;-83
2022/09/19 07:26:04;;;;;;;3.22;2.30;;;;;;;13.58;100.00;99357.88;4986331;28;20843;-84
2022/09/19 07:28:32;;;;;;;4.23;2.60;;;;;;;13.57;100.00;99354.38;4987340;28;20432;-83
2022/09/19 07:31:00;;;;;;;5.73;2.37;;;;;;;13.65;100.00;99353.56;5004627;28;20409;-82
2022/09/19 07:33:28;;;;;;;4.80;2.53;;;;;;;13.80;100.00;99346.56;4986383;28;20460;-82
2022/09/19 07:35:54;;;;;;;3.38;2.40;;;;;;;13.88;100.00;99354.53;4983228;28;20463;-81
2022/09/19 07:38:21;;;;;;;6.95;2.75;;;;;;;13.88;100.00;99358.00;4990886;28;20407;-81
2022/09/19 07:41:00;;;;;;;3.40;2.28;;;;;;;13.86;100.00;99361.81;5013783;28;20412;-82
2022/09/19 07:43:30;;;;;;;3.08;2.45;;;;;;;13.96;100.00;99366.97;4988205;28;20406;-83
2022/09/19 07:46:15;;;;;;;3.38;2.30;;;;;;;14.17;100.00;99376.00;5007599;28;20470;-82
2022/09/19 07:49:04;;;;;;;4.90;2.50;;;;;;;14.35;100.00;99384.59;4987548;28;20417;-82
2022/09/19 07:51:32;;;;;;;5.35;2.35;;;;;;;14.23;100.00;99380.66;5006983;28;20411;-82
2022/09/19 07:53:59;;;;;;;3.10;2.20;;;;;;;14.28;100.00;99396.88;4970315;28;20818;-82
2022/09/19 07:56:24;;;;;;;4.37;2.83;;;;;;;14.38;100.00;99398.53;4987016;28;20404;-82
2022/09/19 07:58:50;;;;;;;4.00;2.22;;;;;;;14.46;99.65;99402.00;4985501;28;20464;-82
2022/09/19 08:01:15;;;;;;;2.78;2.00;;;;;;;14.58;99.17;99399.81;4982888;28;20396;-82
2022/09/19 08:04:00;;;;;;;2.40;2.08;;;;;;;14.65;97.76;99406.09;5004754;28;20572;-81
2022/09/19 08:06:36;;;;;;;2.90;1.95;;;;;;;14.71;97.45;99406.22;4982611;28;20842;-83
2022/09/19 08:09:03;;;;;;;2.90;1.90;;;;;;;14.84;96.29;99411.00;4984936;28;20946;-82
2022/09/19 08:11:51;;;;;;;2.30;1.70;;;;;;;15.02;95.43;99416.84;4989153;28;20412;-83
2022/09/19 08:14:17;;;;;;;1.63;1.53;;;;;;;15.21;93.50;99425.38;4991232;28;20465;-83
2022/09/19 08:16:43;;;;;;;3.20;1.57;;;;;;;15.33;92.20;99422.16;4986053;28;20462;-83
2022/09/19 08:19:09;;;;;;;3.50;1.70;;;;;;;15.52;91.87;99431.53;4983560;28;20461;-83
2022/09/19 08:21:35;;;;;;;;;;;;;;;15.39;91.85;99425.94;4986919;28;20390;-83
2022/09/19 08:24:02;;;;;;;;;;;;;;;15.39;91.68;99431.25;4984531;28;19950;-83
2022/09/19 08:26:28;;;;;;;;;;;;;;;15.41;91.27;99429.25;4990546;28;19918;-83
2022/09/19 08:28:54;;;;;;;;;;;;;;;15.46;91.13;99435.69;4988769;28;20385;-82
2022/09/19 08:31:22;;;;;;;;;;;;;;;15.55;91.54;99437.31;4971029;28;20381;-83
2022/09/19 08:33:48;;;;;;;;;;;;;;;15.64;90.74;99432.78;4986878;28;19940;-84
2022/09/19 08:36:14;;;;;;;;;;;;;;;15.74;88.92;99430.69;4983197;28;19932;-84
2022/09/19 08:38:40;;;;;;;;;;;;;;;15.84;88.25;99441.94;4988637;28;19944;-83
2022/09/19 08:41:06;;;;;;;;;;;;;;;15.91;87.70;99442.84;4982998;28;20370;-83
2022/09/19 08:43:31;;;;;;;;;;;;;;;16.02;88.04;99443.44;5001401;28;19932;-83
2022/09/19 08:46:06;;;;;;;;;;;;;;;16.11;87.29;99442.34;4983272;28;19929;-83
2022/09/19 08:48:44;;;;;;;;;;;;;;;16.20;87.14;99442.06;5005555;28;20465;-83
2022/09/19 08:51:17;;;;;;;;;;;;;;;16.32;86.65;99439.78;4987153;28;19921;-83
2022/09/19 08:53:46;;;;;;;;;;;;;;;16.44;86.02;99449.00;5005468;28;19917;-84
2022/09/19 08:56:13;;;;;;;;;;;;;;;16.52;85.83;99450.75;4986755;28;19956;-83
2022/09/19 08:58:44;;;;;;;;;;;;;;;16.65;86.01;99457.13;4987876;28;19944;-83
2022/09/19 09:01:18;;;;;;;;;;;;;;;16.75;85.86;99463.00;4983263;28;19917;-83
2022/09/19 09:04:11;;;;;;;;;;;;;;;16.85;84.93;99453.91;5005715;28;19987;-82
2022/09/19 09:07:08;;;;;;;2.58;1.42;;;;;;;16.91;84.29;99450.47;4980963;28;19925;-83
2022/09/19 09:10:08;;;;;;;2.53;1.63;;;;;;;17.01;84.66;99465.19;4988082;28;20132;-82
2022/09/19 09:13:00;;;;;;;3.80;1.25;;;;;;;17.14;84.25;99461.88;4986664;28;20030;-83
2022/09/19 09:15:48;;;;;;;3.40;1.58;;;;;;;17.26;84.98;99455.00;4983005;28;20485;-82
2022/09/19 09:18:30;;;;;;;2.78;1.77;;;;;;;17.51;84.52;99453.66;4983655;28;21035;-85
2022/09/19 09:21:15;;;;;;;1.77;1.15;;;;;;;17.53;84.32;99461.47;4989324;28;20108;-82
2022/09/19 09:23:45;;;;;;;2.33;1.00;;;;;;;17.58;84.19;99470.56;4984794;28;20031;-83
2022/09/19 09:26:36;;;;;;;2.28;1.40;;;;;;;17.66;83.99;99466.16;4984496;28;20112;-82
2022/09/19 09:29:12;;;;;;;3.58;1.42;;;;;;;17.74;84.15;99466.84;4986830;28;20029;-80
2022/09/19 09:32:05;;;;;;;4.75;1.27;;;;;;;17.87;84.48;99463.47;4982821;28;20030;-84
2022/09/19 09:34:41;;;;;;;1.90;1.55;;;;;;;17.97;84.20;99458.63;4988712;28;20026;-83
2022/09/19 09:37:24;;;;;;;4.00;1.13;;;;;;;18.08;84.09;99466.13;4987381;28;20038;-82
2022/09/19 09:40:12;;;;;;;4.15;1.25;;;;;;;18.14;84.80;99465.38;4982761;28;20145;-82
2022/09/19 09:43:05;;;;;;;3.53;1.00;;;;;;;18.22;85.20;99467.88;4984726;28;20118;-82
2022/09/19 09:45:42;;;;;;;2.50;1.20;;;;;;;18.31;85.04;99471.25;4982227;28;20128;-83
2022/09/19 09:48:24;;;;;;;2.67;1.10;;;;;;;18.34;86.24;99463.66;4987086;28;20501;-83
2022/09/19 09:51:29;;;;;;;3.67;1.50;;;;;;;18.43;86.20;99459.00;4982369;28;20096;-81
2022/09/19 09:54:06;;;;;;;3.90;1.75;;;;;;;18.50;86.17;99453.69;4987125;28;20137;-84
2022/09/19 09:56:53;;;;;;;2.55;1.10;;;;;;;18.59;86.11;99452.53;4959769;28;20026;-84
2022/09/19 10:05:51;;;;;;;2.00;1.35;;;;;;;18.94;86.26;99451.50;4994635;28;20352;-81
2022/09/19 10:08:31;;;;;;;1.40;1.05;;;;;;;19.05;86.33;99445.56;4986781;28;20072;-79
2022/09/19 10:11:17;;;;;;;1.85;1.50;;;;;;;19.13;86.41;99440.06;5004174;28;20042;-83
2022/09/19 10:13:51;;;;;;;2.90;1.50;;;;;;;19.22;86.00;99446.88;5009652;28;20030;-79
2022/09/19 10:16:19;;;;;;;7.70;1.73;;;;;;;19.28;86.79;99441.75;4989785;28;20080;-78
2022/09/19 10:18:59;;;;;;;2.70;1.30;;;;;;;19.35;88.57;99445.25;4989196;28;20490;-79
2022/09/19 10:21:25;;;;;;;7.13;1.52;;;;;;;19.43;89.01;99445.09;5007151;28;20030;-81
2022/09/19 10:23:53;;;;;;;3.33;1.23;;;;;;;19.50;89.19;99446.75;4988051;28;20026;-81
2022/09/19 10:26:28;;;;;;;2.30;1.35;;;;;;;19.59;89.82;99450.09;4989251;28;20058;-80
2022/09/19 10:29:04;;;;;;;2.58;1.00;;;;;;;19.64;90.45;99444.94;4990770;28;20066;-83
2022/09/19 10:31:38;;;;;;;2.20;1.38;;;;;;;19.72;91.41;99447.44;5007372;28;20050;-82
2022/09/19 10:34:41;;;;;;;2.92;1.38;;;;;;;19.78;91.46;99443.94;4995342;28;20040;-85
2022/09/19 10:37:27;;;;;;;3.58;1.13;;;;;;;19.85;91.84;99454.66;4996635;28;20033;-85
2022/09/19 10:40:01;;;;;;;1.73;1.23;;;;;;;19.91;91.76;99443.94;5012229;28;20607;-86
2022/09/19 10:42:42;;;;;;;3.08;1.42;;;;;;;20.02;92.27;99438.00;4993767;28;20075;-83
2022/09/19 10:45:35;;;;;;;4.57;1.30;;;;;;;20.10;91.55;99433.44;4990025;28;20116;-86
2022/09/19 10:48:11;;;;;;;2.42;1.45;;;;;;;20.20;91.67;99436.53;4993079;28;20022;-85
2022/09/19 10:50:47;;;;;;;4.20;1.48;;;;;;;20.31;91.18;99433.22;4989015;28;20030;-86
2022/09/19 10:53:22;;;;;;;3.97;1.30;;;;;;;20.39;89.68;99431.16;4990936;28;20039;-86
2022/09/19 10:55:49;;;;;;;5.45;1.17;;;;;;;20.49;88.58;99433.44;4989819;28;20037;-85
2022/09/19 10:58:22;;;;;;;3.58;1.42;;;;;;;20.61;87.43;99434.44;4986861;28;20084;-86
2022/09/19 11:01:04;;;;;;;3.83;1.45;;;;;;;20.68;86.90;99434.38;4990323;28;20334;-84
2022/09/19 11:04:03;;;;;;;6.87;1.87;;;;;;;21.03;85.10;99437.59;4988782;28;20927;-85
2022/09/19 11:06:30;;;;;;;3.42;1.50;;;;;;;21.05;84.96;99430.13;4986873;28;20089;-86
2022/09/19 11:08:56;;;;;;;5.30;1.55;;;;;;;21.09;84.92;99423.31;4984092;28;20046;-85
2022/09/19 11:11:45;;;;;;;5.55;1.77;;;;;;;21.15;84.22;99425.97;4990794;28;20140;-86
2022/09/19 11:14:16;;;;;;;4.72;1.40;;;;;;;21.19;83.38;99429.09;4993319;28;20049;-86
2022/09/19 11:16:45;;;;;;;3.55;1.30;;;;;;;21.24;83.33;99423.91;4988968;28;20034;-87
2022/09/19 11:19:13;;;;;;;4.22;1.33;;;;;;;21.37;82.25;99418.47;5005124;28;20037;-85
2022/09/19 11:21:44;;;;;;;4.13;1.23;;;;;;;21.47;81.62;99424.16;5006454;28;20109;-84
2022/09/19 11:24:30;;;;;;;2.65;1.10;;;;;;;21.65;80.59;99424.25;4989943;28;20415;-86
2022/09/19 11:27:03;;;;;;;1.80;1.10;;;;;;;21.76;79.92;99422.72;5005519;28;20029;-84
2022/09/19 11:30:00;;;;;;;4.13;1.40;;;;;;;21.97;78.45;99421.59;4985952;28;20549;-83
2022/09/19 11:32:39;;;;;;;2.78;1.58;;;;;;;22.17;77.71;99418.69;4985191;28;20041;-87
2022/09/19 11:35:36;;;;;;;2.88;1.30;;;;;;;22.25;76.01;99419.25;5001585;28;20038;-85
2022/09/19 11:38:39;;;;;;;8.32;2.50;;;;;;;22.50;75.48;99418.41;4981434;28;20522;-86
2022/09/19 11:41:25;;;;;;;2.05;1.45;;;;;;;22.74;73.87;99418.34;4990420;28;20030;-86
2022/09/19 11:44:23;;;;;;;3.05;1.50;;;;;;;22.90;71.95;99416.09;5000392;28;20030;-82
2022/09/19 11:47:16;;;;;;;3.50;1.30;;;;;;;22.89;70.60;99407.22;4985130;28;20375;-81
2022/09/19 11:49:55;;;;;;;2.80;1.55;;;;;;;23.10;70.32;99412.09;5003561;28;20049;-82
2022/09/19 11:52:55;;;;;;;5.45;1.50;;;;;;;23.45;69.39;99406.03;4989398;28;20077;-84
2022/09/19 11:56:01;;;;;;;3.33;1.40;;;;;;;23.85;67.93;99408.97;4994349;28;20034;-86
2022/09/19 11:58:56;;;;;;;3.15;1.38;;;;;;;24.24;65.17;99402.13;4980163;28;20132;-84
2022/09/19 12:01:36;;;;;;;3.25;2.15;;;;;;;24.53;63.33;99409.25;4979197;28;20509;-83
2022/09/19 12:04:11;;;;;;;2.70;1.17;;;;;;;24.67;61.55;99399.84;4992763;28;20034;-86
2022/09/19 12:06:58;;;;;;;2.10;1.13;;;;;;;24.85;61.13;99397.00;5019523;28;20805;-86
2022/09/19 12:09:33;;;;;;;3.75;1.00;;;;;;;25.04;60.35;99388.72;5022842;28;20030;-87
2022/09/19 12:12:03;;;;;;;3.20;1.27;;;;;;;25.39;57.91;99392.09;5017682;28;20402;-86
2022/09/19 12:14:43;;;;;;;2.22;1.20;;;;;;;25.46;57.13;99386.53;5021295;28;20030;-83
2022/09/19 12:17:28;;;;;;;1.63;1.10;;;;;;;25.68;56.33;99380.22;5004363;28;20399;-86
2022/09/19 12:20:17;;;;;;;2.33;1.50;;;;;;;26.00;54.36;99371.53;5001833;28;20091;-83
2022/09/19 12:26:32;;;;;;;4.20;1.73;;;;;;;25.57;55.27;99373.00;5015694;28;20029;-84
2022/09/19 12:29:04;;;;;;;3.83;1.40;;;;;;;25.95;53.83;99363.34;5016807;28;20164;-86
2022/09/19 12:31:35;;;;;;;3.42;1.67;;;;;;;26.45;52.27;99352.44;4993815;28;20411;-84
2022/09/19 12:34:16;;;;;;;1.70;1.27;;;;;;;26.93;50.08;99354.44;4982313;28;20062;-87